createdAt,value
2022-07-28T00:04:17.128Z,14.10
2022-07-28T00:10:10.999Z,13.80
2022-07-28T00:16:08.237Z,13.60
2022-07-28T00:22:02.564Z,13.50
2022-07-28T00:27:58.553Z,13.40
2022-07-28T00:33:52.947Z,13.20
2022-07-28T00:39:46.695Z,13.40
2022-07-28T00:45:39.667Z,13.30
2022-07-28T00:51:38.139Z,13.50
2022-07-28T00:57:33.869Z,13.90
2022-07-28T01:03:30.650Z,13.10
2022-07-28T01:09:43.112Z,12.90
2022-07-28T01:15:41.133Z,13.10
2022-07-28T01:21:36.969Z,13.50
2022-07-28T01:27:50.601Z,13.30
2022-07-28T01:33:50.018Z,13.40
2022-07-28T01:39:46.457Z,13.80
2022-07-28T01:45:41.134Z,13.40
2022-07-28T01:51:37.585Z,12.90
2022-07-28T01:57:31.838Z,12.70
2022-07-28T02:03:35.216Z,12.70
2022-07-28T02:09:31.456Z,12.40
2022-07-28T02:15:28.972Z,12.30
2022-07-28T02:21:38.412Z,12.30
2022-07-28T02:27:43.534Z,12.30
2022-07-28T02:33:59.037Z,12.50
2022-07-28T02:40:00.564Z,12.70
2022-07-28T02:46:02.046Z,12.60
2022-07-28T02:52:01.074Z,12.70
2022-07-28T02:57:56.888Z,12.60
2022-07-28T03:03:55.176Z,13.00
2022-07-28T03:09:51.175Z,13.20
2022-07-28T03:15:44.892Z,12.70
2022-07-28T03:21:41.876Z,12.90
2022-07-28T03:27:40.195Z,13.40
2022-07-28T03:33:33.900Z,13.40
2022-07-28T03:39:32.454Z,13.40
2022-07-28T03:45:27.916Z,13.30
2022-07-28T03:51:21.821Z,13.10
2022-07-28T03:57:24.080Z,12.90
2022-07-28T04:03:22.591Z,12.60
2022-07-28T04:09:37.627Z,12.80
2022-07-28T04:15:32.878Z,12.90
2022-07-28T04:21:26.341Z,13.10
2022-07-28T04:27:19.440Z,13.40
2022-07-28T04:33:14.401Z,13.00
2022-07-28T04:39:07.536Z,13.00
2022-07-28T04:45:00.612Z,13.30
2022-07-28T04:50:57.937Z,13.60
2022-07-28T04:56:51.095Z,13.70
2022-07-28T05:02:45.718Z,13.90
2022-07-28T05:08:40.139Z,14.20
2022-07-28T05:14:33.202Z,14.10
2022-07-28T05:20:26.452Z,13.90
2022-07-28T05:26:20.914Z,14.10
2022-07-28T05:32:19.316Z,14.40
2022-07-28T05:38:17.618Z,14.50
2022-07-28T05:44:12.347Z,14.60
2022-07-28T05:50:06.233Z,14.70
2022-07-28T05:56:02.108Z,14.70
2022-07-28T06:01:56.537Z,14.60
2022-07-28T06:07:51.101Z,14.80
2022-07-28T06:13:46.329Z,14.70
2022-07-28T06:19:42.936Z,14.90
2022-07-28T06:25:35.977Z,14.90
2022-07-28T06:31:29.295Z,15.10
2022-07-28T06:37:23.821Z,15.20
2022-07-28T06:43:17.030Z,15.20
2022-07-28T06:49:10.270Z,15.30
2022-07-28T06:55:08.243Z,15.30
2022-07-28T07:01:07.813Z,15.50
2022-07-28T07:07:01.274Z,15.50
2022-07-28T07:12:57.170Z,15.40
2022-07-28T07:18:53.031Z,15.50
2022-07-28T07:24:46.117Z,15.50
2022-07-28T07:30:43.159Z,15.60
2022-07-28T07:36:43.822Z,15.70
2022-07-28T07:42:37.409Z,15.80
2022-07-28T07:48:34.511Z,15.90
2022-07-28T07:54:30.329Z,16.00
2022-07-28T08:06:32.839Z,16.10
2022-07-28T08:12:29.313Z,16.10
2022-07-28T08:18:24.748Z,16.20
2022-07-28T08:24:27.780Z,16.30
2022-07-28T08:30:32.449Z,16.50
2022-07-28T08:36:32.077Z,16.60
2022-07-28T08:42:35.439Z,16.70
2022-07-28T08:48:31.723Z,16.80
2022-07-28T08:54:28.984Z,16.70
2022-07-28T09:00:24.385Z,16.70
2022-07-28T09:06:18.383Z,16.70
2022-07-28T09:12:11.620Z,16.80
2022-07-28T09:18:06.454Z,16.70
2022-07-28T09:24:02.918Z,16.70
2022-07-28T09:30:00.283Z,17.00
2022-07-28T09:35:56.579Z,17.10
2022-07-28T09:41:55.195Z,17.20
2022-07-28T09:47:48.444Z,17.30
2022-07-28T09:53:45.904Z,17.30
2022-07-28T09:59:45.467Z,17.50
2022-07-28T10:05:50.730Z,17.60
2022-07-28T10:11:51.153Z,17.50
2022-07-28T10:17:52.346Z,17.70
2022-07-28T10:23:49.426Z,17.70
2022-07-28T10:29:45.530Z,17.60
2022-07-28T10:35:54.242Z,17.80
2022-07-28T10:41:49.234Z,17.90
2022-07-28T10:47:53.194Z,17.80
2022-07-28T10:53:54.391Z,18.20
2022-07-28T11:00:13.203Z,18.60
2022-07-28T11:06:27.847Z,19.00
2022-07-28T11:12:49.027Z,19.00
2022-07-28T11:19:07.663Z,19.00
2022-07-28T11:25:28.328Z,19.00
2022-07-28T11:32:02.307Z,18.80
2022-07-28T11:38:11.679Z,18.80
2022-07-28T11:44:25.346Z,18.80
2022-07-28T11:50:21.957Z,18.80
2022-07-28T12:02:28.947Z,18.80
2022-07-28T12:08:26.532Z,18.80
2022-07-28T12:14:22.529Z,18.80
2022-07-28T12:20:17.365Z,18.70
2022-07-28T12:26:31.398Z,18.50
2022-07-28T12:32:31.872Z,18.50
2022-07-28T12:38:28.644Z,18.80
2022-07-28T12:44:32.701Z,18.80
2022-07-28T12:50:26.322Z,18.90
2022-07-28T12:56:19.446Z,19.10
2022-07-28T13:02:24.834Z,19.10
2022-07-28T13:08:21.012Z,19.00
2022-07-28T13:14:17.443Z,19.30
2022-07-28T13:20:18.531Z,19.60
2022-07-28T13:26:12.319Z,19.90
2022-07-28T13:32:05.646Z,20.10
2022-07-28T13:38:00.174Z,19.90
2022-07-28T13:44:12.713Z,19.90
2022-07-28T13:50:09.867Z,19.90
2022-07-28T13:56:08.876Z,20.00
2022-07-28T14:02:02.138Z,20.40
2022-07-28T14:08:00.357Z,21.40
2022-07-28T14:13:55.438Z,22.10
2022-07-28T14:19:48.695Z,23.10
2022-07-28T14:25:49.206Z,23.40
2022-07-28T14:31:44.283Z,23.50
2022-07-28T14:38:04.826Z,23.60
2022-07-28T14:43:57.991Z,23.40
2022-07-28T14:49:57.815Z,24.10
2022-07-28T14:55:53.986Z,23.40
2022-07-28T15:01:48.889Z,23.40
2022-07-28T15:07:49.132Z,23.50
2022-07-28T15:13:44.535Z,23.10
2022-07-28T15:19:49.000Z,23.00
2022-07-28T15:25:44.104Z,22.80
2022-07-28T15:31:39.831Z,22.90
2022-07-28T15:37:40.086Z,22.80
2022-07-28T15:43:34.499Z,22.30
2022-07-28T15:49:28.211Z,22.00
2022-07-28T15:55:21.460Z,21.70
2022-07-28T16:01:17.890Z,21.60
2022-07-28T16:07:33.261Z,21.60
2022-07-28T16:13:31.213Z,21.60
2022-07-28T16:19:47.789Z,21.60
2022-07-28T16:25:45.188Z,21.70
2022-07-28T16:31:43.318Z,21.60
2022-07-28T16:37:41.962Z,21.60
2022-07-28T16:43:35.374Z,21.40
2022-07-28T16:49:28.480Z,21.20
2022-07-28T16:55:24.554Z,21.00
2022-07-28T17:01:17.629Z,20.90
2022-07-28T17:07:12.985Z,20.90
2022-07-28T17:13:07.367Z,20.90
2022-07-28T17:19:08.565Z,20.90
2022-07-28T17:25:06.935Z,20.90
2022-07-28T17:31:14.806Z,20.80
2022-07-28T17:37:07.905Z,20.80
2022-07-28T17:43:01.019Z,20.70
2022-07-28T17:48:55.470Z,20.70
2022-07-28T17:55:09.066Z,20.70
2022-07-28T18:01:11.007Z,20.60
2022-07-28T18:07:09.133Z,20.50
2022-07-28T18:13:02.173Z,20.50
2022-07-28T18:18:57.913Z,20.40
2022-07-28T18:24:54.439Z,20.40
2022-07-28T18:30:50.432Z,20.30
2022-07-28T18:36:43.617Z,20.30
2022-07-28T18:42:38.072Z,20.20
2022-07-28T18:48:34.201Z,20.00
2022-07-28T18:54:30.084Z,20.00
2022-07-28T19:00:26.936Z,19.80
2022-07-28T19:06:20.619Z,19.70
2022-07-28T19:12:15.053Z,19.60
2022-07-28T19:18:12.300Z,19.50
2022-07-28T19:24:06.168Z,19.40
2022-07-28T19:29:59.553Z,19.20
2022-07-28T19:35:57.013Z,19.10
2022-07-28T19:41:50.005Z,19.00
2022-07-28T19:47:43.556Z,19.00
2022-07-28T19:53:38.113Z,18.90
2022-07-28T19:59:34.216Z,18.70
2022-07-28T20:05:28.551Z,18.60
2022-07-28T20:11:25.188Z,18.70
2022-07-28T20:17:36.940Z,18.60
2022-07-28T20:23:38.455Z,18.40
2022-07-28T20:29:35.920Z,18.30
2022-07-28T20:35:29.308Z,18.30
2022-07-28T20:41:25.339Z,18.10
2022-07-28T20:47:23.251Z,18.00
2022-07-28T20:53:18.703Z,18.00
2022-07-28T20:59:14.032Z,17.80
2022-07-28T21:05:26.881Z,17.70
2022-07-28T21:11:34.706Z,17.90
2022-07-28T21:17:28.202Z,17.90
2022-07-28T21:23:25.202Z,17.80
2022-07-28T21:35:16.741Z,17.70
2022-07-28T21:41:13.433Z,17.50
2022-07-28T21:47:09.064Z,17.50
2022-07-28T21:53:02.790Z,17.50
2022-07-28T21:58:57.143Z,17.60
2022-07-28T22:04:50.119Z,17.40
2022-07-28T22:10:43.114Z,17.20
2022-07-28T22:16:37.542Z,17.30
2022-07-28T22:22:30.630Z,17.40
2022-07-28T22:28:42.372Z,17.40
2022-07-28T22:34:39.262Z,17.30
2022-07-28T22:40:32.238Z,17.20
2022-07-28T22:46:28.304Z,17.10
2022-07-28T22:52:25.595Z,17.10
2022-07-28T22:58:18.690Z,16.90
2022-07-28T23:04:11.828Z,16.90
2022-07-28T23:10:14.944Z,16.80
2022-07-28T23:16:11.336Z,16.70
2022-07-28T23:22:04.897Z,16.80
2022-07-28T23:27:59.197Z,16.60
2022-07-28T23:33:55.773Z,16.40
2022-07-28T23:39:55.358Z,16.70
2022-07-28T23:45:54.459Z,16.60
2022-07-28T23:51:48.809Z,16.40
2022-07-28T23:57:42.083Z,16.40
